首页
METAR-TAF:

METAR-TAF

机场 :

康斯坦察, 罗马尼亚

纬度: 44-20N, 经度: 028-26E, 海拔: 97米

当前天气观测

该预报发布于18分钟前的04:00 UTC
风速5节,风向西
温度 20°C
湿度 60%
气压 1014 hPa
能见度10公里或以上
1500米以下无云,无积雨云

METAR: LRCK 120400Z 28005KT CAVOK 20/12 Q1014 NOSIG

时间: 07:18 (04:18 UTC)

预报

该预报发布于5小时和18分钟前的23:00 UTC
预报有效从12日的 00点(UTC)到 13日的 00点(UTC)
风速4节,风向多变
能见度10公里或以上
1500米以下无云,无积雨云
成为
从 12日的 05点(UTC)到 12日的 07点(UTC)
风速10节,风向北转东北
成为
从 12日的 10点(UTC)到 12日的 12点(UTC)
风速10节,风向东转东南
短暂存在
从 12日的 10点(UTC)到 12日的 16点(UTC)
散云层高于4000英尺, 积雨云.
几率 30% :
短暂存在
从 12日的 12点(UTC)到 12日的 16点(UTC)
能見度: 5000
雷暴, 雨
成为
从 12日的 16点(UTC)到 12日的 18点(UTC)
风速4节,风向多变

TAF: LRCK 112300Z 1200/1300 VRB04KT CAVOK BECMG 1205/1207 03010KT BECMG 1210/1212 12010KT TEMPO 1210/1216 SCT040CB PROB30 TEMPO 1212/1216 5000 TSRA BECMG 1216/1218 VRB04KT

超过4000个机场的气象观测和天气预报(METAR&TAF报告)。

可查询的气象台以黄色和红色小点在地图上表示。

将鼠标移到小点上方,可查看气象台名称。

然后点击查看天气观测和预报。

如需切换地图:点击带黑十字的绿色按钮放大地图;点击带横线的绿色按钮缩小地图;或者点击绿色箭头查看邻近地区的地图。


METAR-TAF: